Time;durP1;ratioP1;P1;durP2;ratioP2;P2;SDS_P1;SDS_P2;PMS_P1;PMS_P2;Temp;Humidity;BMP_temperature;BMP_pressure;BME280_temperature;BME280_humidity;BME280_pressure;Samples;Min_cycle;Max_cycle;Signal;HPM_P1;HPM_P2
2023/10/03 00:01:18;;;;;;;;;;;17.90;81.40;;;;;;4960175;28;19997;-77
2023/10/03 00:03:48;;;;;;;;;;;17.90;81.40;;;;;;4966642;28;20645;-77
2023/10/03 00:06:15;;;;;;;;;;;17.90;81.50;;;;;;4972231;28;20711;-78
2023/10/03 00:08:44;;;;;;;;;;;17.90;81.60;;;;;;4968420;28;20616;-77
2023/10/03 00:11:16;;;;;;;;;;;17.90;81.60;;;;;;4962189;28;19988;-77
2023/10/03 00:13:43;;;;;;;;;;;17.90;81.70;;;;;;4956286;28;20388;-77
2023/10/03 00:16:10;;;;;;;;;;;17.90;81.70;;;;;;4961124;28;20047;-77
2023/10/03 00:18:37;;;;;;;;;;;17.80;82.40;;;;;;4957447;28;20000;-77
2023/10/03 00:21:05;;;;;;;;;;;17.80;81.70;;;;;;4956183;28;19989;-77
2023/10/03 00:23:32;;;;;;;;;;;17.80;81.70;;;;;;4959792;28;19988;-77
2023/10/03 00:26:00;;;;;;;;;;;17.80;81.80;;;;;;4957019;28;19981;-77
2023/10/03 00:28:27;;;;;;;;;;;17.70;81.70;;;;;;4962071;28;20771;-77
2023/10/03 00:30:54;;;;;;;;;;;17.70;81.80;;;;;;4956352;28;20011;-77
2023/10/03 00:33:25;;;;;;;;;;;17.70;81.80;;;;;;4961006;28;19985;-77
2023/10/03 00:35:51;;;;;;;;;;;17.70;81.80;;;;;;4957140;28;19981;-77
2023/10/03 00:38:19;;;;;;;;;;;17.70;81.80;;;;;;4961731;28;19999;-77
2023/10/03 00:40:50;;;;;;;;;;;17.70;81.90;;;;;;4960986;28;19981;-77
2023/10/03 00:43:17;;;;;;;;;;;17.70;81.90;;;;;;4959623;28;19977;-77
2023/10/03 00:45:45;;;;;;;;;;;17.70;82.00;;;;;;4958220;28;19998;-77
2023/10/03 00:48:12;;;;;;;;;;;17.60;82.00;;;;;;4969469;28;20004;-77
2023/10/03 00:50:39;;;;;;;;;;;17.60;82.10;;;;;;4959287;28;20001;-77
2023/10/03 00:53:09;;;;;;;;;;;17.60;82.10;;;;;;4957619;28;19985;-77
2023/10/03 00:55:37;;;;;;;;;;;17.50;82.10;;;;;;4959138;28;19985;-77
2023/10/03 00:58:07;;;;;;;;;;;17.50;82.10;;;;;;4959787;28;20088;-77
2023/10/03 01:00:37;;;;;;;;;;;17.50;82.20;;;;;;4953924;28;20047;-77
2023/10/03 01:03:04;;;;;;;;;;;17.50;82.20;;;;;;4968486;28;20071;-77
2023/10/03 01:05:33;;;;;;;;;;;17.50;82.30;;;;;;4958028;28;20365;-77
2023/10/03 01:08:00;;;;;;;;;;;17.40;82.30;;;;;;4956589;28;20753;-77
2023/10/03 01:10:27;;;;;;;;;;;17.40;82.30;;;;;;4958629;28;20091;-77
2023/10/03 01:12:55;;;;;;;;;;;17.40;82.30;;;;;;4957588;28;19985;-77
2023/10/03 01:15:22;;;;;;;;;;;17.40;82.40;;;;;;4955456;28;20701;-77
2023/10/03 01:17:52;;;;;;;;;;;17.40;82.40;;;;;;4961597;28;20009;-77
2023/10/03 01:20:24;;;;;;;;;;;17.30;82.30;;;;;;4958623;28;19988;-78
2023/10/03 01:22:53;;;;;;;;;;;17.30;82.40;;;;;;4955363;28;20107;-77
2023/10/03 01:25:21;;;;;;;;;;;17.30;82.40;;;;;;4971729;28;19982;-77
2023/10/03 01:27:47;;;;;;;;;;;17.30;82.60;;;;;;4957383;28;20001;-77
2023/10/03 01:30:14;;;;;;;;;;;17.30;82.50;;;;;;4965134;28;20519;-77
2023/10/03 01:32:45;;;;;;;;;;;17.20;82.50;;;;;;4956475;28;20043;-77
2023/10/03 01:35:12;;;;;;;;;;;17.20;82.60;;;;;;4960286;28;20062;-77
2023/10/03 01:37:39;;;;;;;;;;;17.20;82.70;;;;;;4962571;28;20001;-77
2023/10/03 01:40:13;;;;;;;;;;;17.20;82.80;;;;;;4967772;28;19984;-77
2023/10/03 01:42:45;;;;;;;;;;;17.20;82.80;;;;;;4955724;28;19984;-77
2023/10/03 01:45:12;;;;;;;;;;;17.20;82.80;;;;;;4959608;28;19985;-77
2023/10/03 01:47:39;;;;;;;;;;;17.20;82.80;;;;;;4967421;28;20023;-77
2023/10/03 01:50:11;;;;;;;;;;;17.10;82.80;;;;;;4964140;28;20459;-77
2023/10/03 01:52:39;;;;;;;;;;;17.10;82.90;;;;;;4957253;28;19981;-77
2023/10/03 01:55:07;;;;;;;;;;;17.10;83.10;;;;;;4961678;28;19981;-77
2023/10/03 01:57:33;;;;;;;;;;;17.10;83.10;;;;;;4962502;28;19997;-77
2023/10/03 02:00:01;;;;;;;;;;;17.10;83.20;;;;;;4957125;28;20526;-77
2023/10/03 02:02:28;;;;;;;;;;;17.00;83.20;;;;;;4964788;28;20005;-77
2023/10/03 02:04:55;;;;;;;;;;;17.10;83.30;;;;;;4966134;28;20083;-77
2023/10/03 02:07:24;;;;;;;;;;;17.00;83.30;;;;;;4971180;28;19997;-77
2023/10/03 02:09:50;;;;;;;;;;;17.00;83.40;;;;;;4964960;28;19997;-77
2023/10/03 02:12:17;;;;;;;;;;;17.00;83.40;;;;;;4963237;28;20383;-77
2023/10/03 02:14:44;;;;;;;;;;;17.00;83.50;;;;;;4962763;28;19985;-77
2023/10/03 02:17:12;;;;;;;;;;;17.00;83.60;;;;;;4960356;28;20009;-77
2023/10/03 02:19:39;;;;;;;;;;;17.00;83.60;;;;;;4966822;28;20028;-77
2023/10/03 02:22:05;;;;;;;;;;;16.90;83.70;;;;;;4963803;28;20565;-78
2023/10/03 02:24:32;;;;;;;;;;;16.90;83.70;;;;;;4963872;28;20478;-77
2023/10/03 02:27:00;;;;;;;;;;;16.90;83.80;;;;;;4963947;28;20016;-77
2023/10/03 02:29:27;;;;;;;;;;;16.90;83.80;;;;;;4966284;28;20486;-77
2023/10/03 02:31:57;;;;;;;;;;;16.90;83.80;;;;;;4965969;28;20288;-78
2023/10/03 02:34:26;;;;;;;;;;;16.80;83.90;;;;;;4967636;28;20008;-77
2023/10/03 02:36:53;;;;;;;;;;;16.80;83.90;;;;;;4964180;28;19985;-77
2023/10/03 02:39:24;;;;;;;;;;;16.80;83.90;;;;;;4967421;28;19985;-77
2023/10/03 02:45:00;;;;;;;;;;;16.80;84.00;;;;;;4966662;28;19975;-77
2023/10/03 02:47:27;;;;;;;;;;;16.80;84.00;;;;;;4962745;28;19997;-77
2023/10/03 02:49:55;;;;;;;;;;;16.70;83.90;;;;;;4963424;28;20107;-77
2023/10/03 02:52:22;;;;;;;;;;;16.70;84.00;;;;;;4964404;28;19985;-77
2023/10/03 02:54:48;;;;;;;;;;;16.70;84.10;;;;;;4966073;28;20431;-77
2023/10/03 02:57:15;;;;;;;;;;;16.70;84.10;;;;;;4966047;28;19997;-77
2023/10/03 02:59:44;;;;;;;;;;;16.70;84.20;;;;;;4964562;28;19985;-77
2023/10/03 03:02:14;;;;;;;;;;;16.70;84.20;;;;;;4963200;28;20004;-77
2023/10/03 03:04:41;;;;;;;;;;;16.60;84.10;;;;;;4964830;28;19985;-77
2023/10/03 03:07:10;;;;;;;;;;;16.60;84.20;;;;;;4959305;28;19982;-77
2023/10/03 03:09:36;;;;;;;;;;;16.60;84.20;;;;;;4962295;28;20090;-77
2023/10/03 03:12:06;;;;;;;;;;;16.60;84.10;;;;;;4961446;28;20507;-77
2023/10/03 03:14:32;;;;;;;;;;;16.60;84.90;;;;;;4959549;28;19982;-77
2023/10/03 03:16:59;;;;;;;;;;;16.60;84.30;;;;;;4963351;28;20000;-77
2023/10/03 03:19:27;;;;;;;;;;;16.60;84.30;;;;;;4961105;28;19988;-77
2023/10/03 03:21:57;;;;;;;;;;;16.60;84.30;;;;;;4958887;28;20096;-77
2023/10/03 03:24:33;;;;;;;;;;;16.60;84.40;;;;;;4960934;28;19993;-77
2023/10/03 03:27:00;;;;;;;;;;;16.60;85.20;;;;;;4959244;28;19981;-77
2023/10/03 03:29:35;;;;;;;;;;;16.50;84.50;;;;;;4961163;28;19985;-77
2023/10/03 03:32:02;;;;;;;;;;;16.50;84.50;;;;;;4963334;28;20004;-77
2023/10/03 03:34:30;;;;;;;;;;;16.50;84.60;;;;;;4961122;28;19981;-77
2023/10/03 03:37:14;;;;;;;;;;;16.50;84.60;;;;;;4959775;28;20407;-78
2023/10/03 03:39:52;;;;;;;;;;;16.50;84.70;;;;;;4957185;28;19973;-77
2023/10/03 03:42:19;;;;;;;;;;;16.50;84.80;;;;;;4959821;28;20476;-77
2023/10/03 03:44:46;;;;;;;;;;;16.40;84.80;;;;;;4962180;28;19981;-77
2023/10/03 03:47:13;;;;;;;;;;;16.50;84.90;;;;;;4951607;28;20113;-77
2023/10/03 03:49:40;;;;;;;;;;;16.40;84.80;;;;;;4953453;28;20043;-76
2023/10/03 03:52:09;;;;;;;;;;;16.40;84.90;;;;;;4951248;28;20028;-77
2023/10/03 03:54:35;;;;;;;;;;;16.40;85.00;;;;;;4951720;28;19983;-77
2023/10/03 03:57:06;;;;;;;;;;;16.40;85.00;;;;;;4951473;28;19981;-77
2023/10/03 03:59:33;;;;;;;;;;;16.40;85.10;;;;;;4950807;28;19977;-77
2023/10/03 04:02:00;;;;;;;;;;;16.40;85.20;;;;;;4951039;28;20142;-76
2023/10/03 04:04:27;;;;;;;;;;;16.40;85.20;;;;;;4951416;28;20126;-76
2023/10/03 04:06:55;;;;;;;;;;;16.40;85.40;;;;;;4951864;28;19981;-77
2023/10/03 04:09:21;;;;;;;;;;;16.40;85.40;;;;;;4951222;28;20105;-77
2023/10/03 04:11:48;;;;;;;;;;;16.40;85.40;;;;;;4952674;28;20001;-77
2023/10/03 04:14:17;;;;;;;;;;;16.40;85.40;;;;;;4952235;28;19977;-77
2023/10/03 04:16:44;;;;;;;;;;;16.40;85.40;;;;;;4951941;28;20467;-77
2023/10/03 04:19:11;;;;;;;;;;;16.30;85.30;;;;;;4952031;28;20001;-77
2023/10/03 04:21:40;;;;;;;;;;;16.40;85.40;;;;;;4951675;28;19981;-77
2023/10/03 04:24:09;;;;;;;;;;;16.30;85.30;;;;;;4951576;28;20457;-77
2023/10/03 04:26:36;;;;;;;;;;;16.30;85.30;;;;;;4951436;28;20024;-77
2023/10/03 04:29:03;;;;;;;;;;;16.40;85.50;;;;;;4951336;28;20003;-78
2023/10/03 04:31:31;;;;;;;;;;;16.30;85.40;;;;;;4949976;28;20008;-77
2023/10/03 04:33:58;;;;;;;;;;;16.30;85.50;;;;;;4952077;28;19981;-77
2023/10/03 04:36:26;;;;;;;;;;;16.40;85.70;;;;;;4952648;28;20146;-77
2023/10/03 04:38:52;;;;;;;;;;;16.30;85.60;;;;;;4951497;28;19997;-77
2023/10/03 04:41:19;;;;;;;;;;;16.30;85.60;;;;;;4952717;28;20111;-77
2023/10/03 04:43:46;;;;;;;;;;;16.30;85.60;;;;;;4952667;28;19988;-77
2023/10/03 04:46:13;;;;;;;;;;;16.30;85.70;;;;;;4955154;28;20035;-77
2023/10/03 04:48:41;;;;;;;;;;;16.30;85.70;;;;;;4957486;28;19993;-77
2023/10/03 04:51:08;;;;;;;;;;;16.30;85.70;;;;;;4961726;28;20084;-77
2023/10/03 04:53:35;;;;;;;;;;;16.30;85.70;;;;;;4958628;28;20083;-76
2023/10/03 04:56:03;;;;;;;;;;;16.20;85.70;;;;;;4958338;28;19977;-77
2023/10/03 04:58:29;;;;;;;;;;;16.30;85.80;;;;;;4960027;28;20096;-77
2023/10/03 05:00:56;;;;;;;;;;;16.30;85.80;;;;;;4960124;28;19997;-77
2023/10/03 05:03:23;;;;;;;;;;;16.30;85.80;;;;;;4961344;28;19981;-77
2023/10/03 05:05:52;;;;;;;;;;;16.30;85.90;;;;;;4962263;28;19985;-77
2023/10/03 05:08:19;;;;;;;;;;;16.20;85.90;;;;;;4966361;28;20045;-76
2023/10/03 05:10:45;;;;;;;;;;;16.20;86.00;;;;;;4965494;28;20094;-76
2023/10/03 05:13:13;;;;;;;;;;;16.20;86.00;;;;;;4976554;28;19977;-76
2023/10/03 05:15:39;;;;;;;;;;;16.20;86.00;;;;;;4957779;28;19996;-76
2023/10/03 05:18:06;;;;;;;;;;;16.20;86.10;;;;;;4959956;28;19997;-77
2023/10/03 05:20:37;;;;;;;;;;;16.20;86.00;;;;;;4963806;28;19989;-77
2023/10/03 05:23:05;;;;;;;;;;;16.20;86.10;;;;;;4963013;28;20104;-77
2023/10/03 05:25:36;;;;;;;;;;;16.20;86.10;;;;;;4959079;28;19981;-77
2023/10/03 05:28:03;;;;;;;;;;;16.20;86.10;;;;;;4961354;28;20001;-77
2023/10/03 05:30:33;;;;;;;;;;;16.20;86.20;;;;;;4957749;28;20088;-77
2023/10/03 05:33:00;;;;;;;;;;;16.20;86.10;;;;;;4963336;28;19992;-76
2023/10/03 05:35:27;;;;;;;;;;;16.20;86.10;;;;;;4960763;28;20084;-76
2023/10/03 05:37:53;;;;;;;;;;;16.20;86.10;;;;;;4963165;28;19997;-77
2023/10/03 05:40:22;;;;;;;;;;;16.10;86.10;;;;;;4958400;28;20444;-77
2023/10/03 05:42:49;;;;;;;;;;;16.20;86.10;;;;;;4957476;28;20392;-79
2023/10/03 05:45:17;;;;;;;;;;;16.10;86.10;;;;;;4961622;28;19981;-77
2023/10/03 05:47:45;;;;;;;;;;;16.10;86.10;;;;;;4965118;28;20032;-77
2023/10/03 05:50:12;;;;;;;;;;;16.00;85.90;;;;;;4961435;28;20613;-77
2023/10/03 05:52:39;;;;;;;;;;;16.10;86.60;;;;;;4963575;28;19992;-77
2023/10/03 05:55:06;;;;;;;;;;;16.10;85.80;;;;;;4959062;28;19989;-77
2023/10/03 05:57:37;;;;;;;;;;;16.10;85.80;;;;;;4960487;28;20008;-77
2023/10/03 06:00:08;;;;;;;;;;;16.10;85.70;;;;;;4962008;28;19981;-77
2023/10/03 06:02:35;;;;;;;;;;;16.10;85.70;;;;;;4957638;28;20001;-77
2023/10/03 06:05:01;;;;;;;;;;;16.10;85.60;;;;;;4959745;28;20034;-78
2023/10/03 06:07:28;;;;;;;;;;;16.10;85.50;;;;;;4960244;28;20008;-78
2023/10/03 06:09:55;;;;;;;;;;;16.10;85.40;;;;;;4959292;28;19985;-77
2023/10/03 06:12:23;;;;;;;;;;;16.20;85.40;;;;;;4958090;28;19997;-77
2023/10/03 06:14:51;;;;;;;;;;;16.20;85.30;;;;;;4959496;28;19988;-77
2023/10/03 06:17:18;;;;;;;;;;;16.20;85.20;;;;;;4957293;28;19997;-77
2023/10/03 06:19:45;;;;;;;;;;;16.20;85.10;;;;;;4956050;28;20590;-77
2023/10/03 06:22:12;;;;;;;;;;;16.20;85.00;;;;;;4960281;28;19981;-77
2023/10/03 06:24:39;;;;;;;;;;;16.20;84.80;;;;;;4958676;28;19984;-77
2023/10/03 06:27:08;;;;;;;;;;;16.20;84.70;;;;;;4960961;28;20009;-76
2023/10/03 06:29:35;;;;;;;;;;;16.20;84.60;;;;;;4959031;28;20037;-77
2023/10/03 06:32:04;;;;;;;;;;;16.20;84.50;;;;;;4959248;28;20096;-78
2023/10/03 06:34:30;;;;;;;;;;;16.30;84.50;;;;;;4960705;28;20640;-77
2023/10/03 06:36:57;;;;;;;;;;;16.20;84.30;;;;;;4958955;28;20059;-77
2023/10/03 06:39:24;;;;;;;;;;;16.30;84.30;;;;;;4957218;28;19981;-77
2023/10/03 06:41:55;;;;;;;;;;;16.30;84.20;;;;;;4961237;28;19996;-77
2023/10/03 06:44:21;;;;;;;;;;;16.30;84.10;;;;;;4964141;28;20056;-78
2023/10/03 06:46:48;;;;;;;;;;;16.40;84.00;;;;;;4959145;28;20012;-78
2023/10/03 06:49:17;;;;;;;;;;;16.40;83.80;;;;;;4962069;28;20026;-77
2023/10/03 06:51:44;;;;;;;;;;;16.40;83.80;;;;;;4965343;28;20036;-77
2023/10/03 06:54:10;;;;;;;;;;;16.40;83.60;;;;;;4960975;28;20016;-77
2023/10/03 06:56:37;;;;;;;;;;;16.40;83.50;;;;;;4964100;28;19984;-77
2023/10/03 06:59:05;;;;;;;;;;;16.50;83.40;;;;;;4957621;28;20080;-77
2023/10/03 07:01:33;;;;;;;;;;;16.50;83.30;;;;;;4960144;28;20007;-78
2023/10/03 07:04:01;;;;;;;;;;;16.50;83.30;;;;;;4960907;28;19981;-77
2023/10/03 07:06:30;;;;;;;;;;;16.50;83.20;;;;;;4956196;28;20390;-77
2023/10/03 07:08:58;;;;;;;;;;;16.50;83.10;;;;;;4957371;28;20399;-78
2023/10/03 07:11:25;;;;;;;;;;;16.50;83.10;;;;;;4955848;28;19997;-78
2023/10/03 07:13:51;;;;;;;;;;;16.60;83.10;;;;;;4957347;28;20068;-77
2023/10/03 07:16:18;;;;;;;;;;;16.60;83.00;;;;;;4960135;28;20446;-78
2023/10/03 07:18:45;;;;;;;;;;;16.60;82.90;;;;;;4958362;28;20001;-77
2023/10/03 07:21:15;;;;;;;;;;;16.70;82.90;;;;;;4958943;28;20399;-77
2023/10/03 07:23:44;;;;;;;;;;;16.70;82.90;;;;;;4956708;28;20058;-77
2023/10/03 07:26:10;;;;;;;;;;;16.70;82.80;;;;;;4958981;28;19977;-76
2023/10/03 07:28:38;;;;;;;;;;;16.70;82.70;;;;;;4956217;28;20001;-78
2023/10/03 07:31:08;;;;;;;;;;;16.70;82.50;;;;;;4960057;28;20005;-77
2023/10/03 07:33:34;;;;;;;;;;;16.70;82.50;;;;;;4976433;28;20598;-77
2023/10/03 07:36:04;;;;;;;;;;;16.80;82.50;;;;;;4961767;28;19977;-77
2023/10/03 07:38:30;;;;;;;;;;;16.80;82.40;;;;;;4963136;28;19997;-77
2023/10/03 07:40:58;;;;;;;;;;;16.80;82.30;;;;;;4958050;28;19985;-77
2023/10/03 07:43:25;;;;;;;;;;;16.80;82.20;;;;;;4957125;28;19985;-77
2023/10/03 07:45:51;;;;;;;;;;;16.90;82.20;;;;;;4972077;28;20051;-78
2023/10/03 07:48:21;;;;;;;;;;;16.90;82.20;;;;;;4962881;28;20020;-78
2023/10/03 07:50:48;;;;;;;;;;;16.90;82.20;;;;;;4958853;28;19992;-78
2023/10/03 07:53:16;;;;;;;;;;;16.90;82.10;;;;;;4955096;28;19985;-77
2023/10/03 07:55:42;;;;;;;;;;;16.90;82.00;;;;;;4958965;28;20031;-77
2023/10/03 07:58:14;;;;;;;;;;;17.00;81.90;;;;;;4957243;28;20017;-77
2023/10/03 08:00:44;;;;;;;;;;;17.00;82.60;;;;;;4964413;28;20032;-78
2023/10/03 08:03:11;;;;;;;;;;;17.00;81.70;;;;;;4962433;28;20075;-78
2023/10/03 08:05:38;;;;;;;;;;;17.10;81.80;;;;;;4970867;28;20047;-77
2023/10/03 08:08:04;;;;;;;;;;;17.10;81.80;;;;;;4986618;28;20001;-77
2023/10/03 08:10:32;;;;;;;;;;;17.10;81.60;;;;;;4957108;28;20055;-77
2023/10/03 08:12:59;;;;;;;;;;;17.10;81.60;;;;;;4957861;28;19997;-77
2023/10/03 08:15:31;;;;;;;;;;;17.20;81.70;;;;;;4963634;28;20001;-77
2023/10/03 08:17:58;;;;;;;;;;;17.20;81.60;;;;;;4957514;28;20062;-78
2023/10/03 08:20:26;;;;;;;;;;;17.20;81.60;;;;;;4956744;28;19978;-77
2023/10/03 08:22:52;;;;;;;;;;;17.30;81.60;;;;;;4959484;28;19981;-77
2023/10/03 08:25:19;;;;;;;;;;;17.30;81.40;;;;;;4959695;28;19988;-78
2023/10/03 08:27:46;;;;;;;;;;;17.30;81.30;;;;;;4959789;28;20040;-78
2023/10/03 08:30:25;;;;;;;;;;;17.30;81.30;;;;;;4956175;28;20464;-77
2023/10/03 08:32:58;;;;;;;;;;;17.30;81.30;;;;;;4959087;28;20000;-77
2023/10/03 08:35:35;;;;;;;;;;;17.40;81.30;;;;;;4956150;28;19978;-78
2023/10/03 08:38:05;;;;;;;;;;;17.40;81.10;;;;;;4960742;28;20007;-77
2023/10/03 08:40:32;;;;;;;;;;;17.40;81.10;;;;;;4963284;28;20028;-78
2023/10/03 08:43:02;;;;;;;;;;;17.40;80.90;;;;;;4958218;28;19985;-77
2023/10/03 08:45:30;;;;;;;;;;;17.40;81.00;;;;;;4957563;28;20080;-78
2023/10/03 08:48:05;;;;;;;;;;;17.50;81.10;;;;;;4961711;28;19997;-77
2023/10/03 08:50:39;;;;;;;;;;;17.50;80.90;;;;;;4965759;28;19984;-77
2023/10/03 08:53:16;;;;;;;;;;;17.50;80.70;;;;;;4953376;28;20395;-77
2023/10/03 08:55:43;;;;;;;;;;;17.60;80.80;;;;;;4972413;28;20075;-77
2023/10/03 08:58:13;;;;;;;;;;;17.60;80.80;;;;;;4969710;28;19993;-77
2023/10/03 09:00:42;;;;;;;;;;;17.60;80.80;;;;;;4970040;28;20109;-77
2023/10/03 09:03:12;;;;;;;;;;;17.60;80.70;;;;;;4957848;28;19997;-77
2023/10/03 09:05:40;;;;;;;;;;;17.70;80.80;;;;;;4960005;28;19978;-78
2023/10/03 09:08:08;;;;;;;;;;;17.70;80.70;;;;;;4961548;28;20761;-77
2023/10/03 09:10:42;;;;;;;;;;;17.80;80.60;;;;;;4955956;28;20355;-78
2023/10/03 09:13:16;;;;;;;;;;;17.70;80.70;;;;;;4952635;28;20550;-78
2023/10/03 09:15:43;;;;;;;;;;;17.80;80.70;;;;;;4951381;28;20074;-80
2023/10/03 09:18:15;;;;;;;;;;;17.90;81.40;;;;;;4953213;28;20427;-78
2023/10/03 09:20:42;;;;;;;;;;;17.90;80.50;;;;;;4961912;28;19981;-78
2023/10/03 09:23:09;;;;;;;;;;;18.00;80.50;;;;;;4961954;28;20008;-78
2023/10/03 09:25:38;;;;;;;;;;;18.00;80.50;;;;;;4955881;28;19984;-77
2023/10/03 09:28:05;;;;;;;;;;;18.10;80.40;;;;;;4965475;28;20468;-78
2023/10/03 09:30:37;;;;;;;;;;;18.10;80.40;;;;;;4958635;28;19993;-77
2023/10/03 09:33:05;;;;;;;;;;;18.20;80.50;;;;;;4959154;28;19993;-79
2023/10/03 09:35:33;;;;;;;;;;;18.20;80.40;;;;;;4965715;28;19983;-78
2023/10/03 09:38:05;;;;;;;;;;;18.20;80.40;;;;;;4964771;28;20124;-77
2023/10/03 09:40:47;;;;;;;;;;;18.30;80.40;;;;;;4974931;28;19981;-78
2023/10/03 09:43:16;;;;;;;;;;;18.40;80.50;;;;;;4961978;28;19985;-78
2023/10/03 09:45:45;;;;;;;;;;;18.40;80.50;;;;;;4961652;28;20087;-78
2023/10/03 09:48:12;;;;;;;;;;;18.50;80.40;;;;;;4961854;28;19993;-77
2023/10/03 09:50:51;;;;;;;;;;;18.60;80.30;;;;;;4961108;28;21130;-78
2023/10/03 09:53:18;;;;;;;;;;;18.60;80.30;;;;;;4961622;28;20019;-78
2023/10/03 09:55:46;;;;;;;;;;;18.70;80.20;;;;;;4960020;28;20012;-77
2023/10/03 09:58:21;;;;;;;;;;;18.70;80.00;;;;;;4958407;28;20007;-78
2023/10/03 10:00:51;;;;;;;;;;;18.80;80.00;;;;;;4962451;28;20000;-78
2023/10/03 10:03:19;;;;;;;;;;;18.90;80.00;;;;;;4960918;28;20338;-77
2023/10/03 10:05:59;;;;;;;;;;;19.00;80.60;;;;;;4960339;28;20328;-77
2023/10/03 10:08:29;;;;;;;;;;;19.10;79.80;;;;;;4958564;28;19992;-78
2023/10/03 10:11:07;;;;;;;;;;;19.20;79.60;;;;;;4965298;28;19985;-77
2023/10/03 10:13:36;;;;;;;;;;;19.20;79.40;;;;;;4956382;28;20063;-78
2023/10/03 10:16:11;;;;;;;;;;;19.40;79.20;;;;;;4958142;28;20008;-78
2023/10/03 10:18:57;;;;;;;;;;;19.40;78.80;;;;;;4965032;28;20283;-77
2023/10/03 10:21:26;;;;;;;;;;;19.50;78.50;;;;;;4956125;28;19985;-77
2023/10/03 10:24:13;;;;;;;;;;;19.60;78.30;;;;;;4964234;28;20007;-78
2023/10/03 10:26:40;;;;;;;;;;;19.70;78.10;;;;;;4971424;28;20024;-77
2023/10/03 10:29:08;;;;;;;;;;;19.80;78.00;;;;;;4971455;28;19997;-77
2023/10/03 10:31:37;;;;;;;;;;;19.90;77.70;;;;;;4962428;28;19993;-77
2023/10/03 10:34:22;;;;;;;;;;;19.90;77.40;;;;;;4961972;28;19987;-78
2023/10/03 10:36:57;;;;;;;;;;;20.00;77.50;;;;;;4964784;28;19985;-77
2023/10/03 10:39:24;;;;;;;;;;;20.10;77.40;;;;;;4960045;28;19977;-77
2023/10/03 10:42:05;;;;;;;;;;;20.10;77.50;;;;;;4963268;28;20065;-77
2023/10/03 10:44:32;;;;;;;;;;;20.10;77.50;;;;;;4958979;28;19981;-77
2023/10/03 10:47:06;;;;;;;;;;;20.20;77.30;;;;;;4959462;28;20001;-77
2023/10/03 10:49:55;;;;;;;;;;;20.20;77.30;;;;;;4969378;28;20479;-79
2023/10/03 10:52:24;;;;;;;;;;;20.30;77.20;;;;;;4959982;28;20386;-78
2023/10/03 10:54:50;;;;;;;;;;;20.20;77.40;;;;;;4961923;28;20057;-77
2023/10/03 10:57:18;;;;;;;;;;;20.20;77.30;;;;;;4957196;28;20102;-78
2023/10/03 10:59:45;;;;;;;;;;;20.30;77.40;;;;;;4961959;28;20470;-77
2023/10/03 11:02:16;;;;;;;;;;;20.40;77.60;;;;;;4966460;28;20531;-78
2023/10/03 11:04:43;;;;;;;;;;;20.30;77.60;;;;;;4966464;28;19978;-78
2023/10/03 11:07:10;;;;;;;;;;;20.40;77.60;;;;;;4962774;28;20445;-80
2023/10/03 11:09:38;;;;;;;;;;;20.40;77.40;;;;;;4962226;28;20069;-77
2023/10/03 11:12:06;;;;;;;;;;;20.50;77.60;;;;;;4963252;28;19988;-77
2023/10/03 11:14:33;;;;;;;;;;;20.50;77.70;;;;;;4963644;28;19977;-77
2023/10/03 11:17:01;;;;;;;;;;;20.60;77.80;;;;;;4960964;28;20004;-76
2023/10/03 11:19:29;;;;;;;;;;;20.60;77.80;;;;;;4967775;28;20006;-80
2023/10/03 11:21:56;;;;;;;;;;;20.60;77.70;;;;;;4959256;28;20442;-76
2023/10/03 11:24:24;;;;;;;;;;;20.60;77.70;;;;;;4969542;28;20544;-76
2023/10/03 11:26:53;;;;;;;;;;;20.60;77.60;;;;;;4961274;28;19984;-78
2023/10/03 11:29:37;;;;;;;;;;;20.60;77.70;;;;;;4960880;28;19977;-76
2023/10/03 11:32:03;;;;;;;;;;;20.60;77.80;;;;;;4973216;28;20007;-76
2023/10/03 11:34:31;;;;;;;;;;;20.60;77.90;;;;;;4962718;28;19988;-77
2023/10/03 11:36:58;;;;;;;;;;;20.60;77.70;;;;;;4961404;28;19981;-77
2023/10/03 11:39:26;;;;;;;;;;;20.60;77.50;;;;;;4961667;28;20039;-77
2023/10/03 11:41:54;;;;;;;;;;;20.70;77.80;;;;;;4960906;28;19981;-77
2023/10/03 11:44:21;;;;;;;;;;;20.70;77.60;;;;;;4963211;28;19977;-76
2023/10/03 11:46:48;;;;;;;;;;;20.70;77.60;;;;;;4960031;28;20001;-76
2023/10/03 11:49:15;;;;;;;;;;;20.70;77.50;;;;;;4974394;28;20097;-77
2023/10/03 11:51:43;;;;;;;;;;;20.70;77.20;;;;;;4962042;28;20435;-76
2023/10/03 11:54:10;;;;;;;;;;;20.70;77.10;;;;;;4959124;28;20005;-76
2023/10/03 11:56:41;;;;;;;;;;;20.70;77.10;;;;;;4972757;28;19984;-77
2023/10/03 11:59:09;;;;;;;;;;;20.70;77.20;;;;;;4963931;28;20032;-77
2023/10/03 12:01:36;;;;;;;;;;;20.70;77.00;;;;;;4958841;28;20000;-76
2023/10/03 12:04:03;;;;;;;;;;;20.80;76.90;;;;;;4963579;28;20086;-77
2023/10/03 12:06:30;;;;;;;;;;;20.80;77.10;;;;;;4944976;28;20038;-76
2023/10/03 12:08:58;;;;;;;;;;;20.80;76.90;;;;;;4965124;28;20025;-76
2023/10/03 12:11:24;;;;;;;;;;;20.80;76.90;;;;;;4957827;28;20002;-76
2023/10/03 12:13:51;;;;;;;;;;;20.80;76.80;;;;;;4972766;28;20004;-76
2023/10/03 12:16:20;;;;;;;;;;;20.90;76.60;;;;;;4957119;28;20079;-77
2023/10/03 12:18:47;;;;;;;;;;;20.90;76.60;;;;;;4973616;28;19997;-76
2023/10/03 12:21:13;;;;;;;;;;;20.90;76.50;;;;;;4965040;28;19981;-76
2023/10/03 12:23:40;;;;;;;;;;;20.90;76.40;;;;;;4964660;28;19977;-77
2023/10/03 12:26:07;;;;;;;;;;;21.00;76.40;;;;;;4959610;28;19988;-76
2023/10/03 12:28:33;;;;;;;;;;;21.00;76.50;;;;;;4962238;28;20359;-76
2023/10/03 12:31:00;;;;;;;;;;;21.00;76.30;;;;;;4959835;28;20651;-76
2023/10/03 12:33:28;;;;;;;;;;;21.00;76.00;;;;;;4960505;28;19993;-76
2023/10/03 12:35:55;;;;;;;;;;;21.10;75.90;;;;;;4966100;28;19985;-76
2023/10/03 12:38:21;;;;;;;;;;;21.10;75.70;;;;;;4975867;28;19998;-77
2023/10/03 12:40:48;;;;;;;;;;;21.20;75.60;;;;;;4958733;28;19992;-76
2023/10/03 12:43:15;;;;;;;;;;;21.20;75.30;;;;;;4954536;28;20032;-77
2023/10/03 12:45:42;;;;;;;;;;;21.30;75.10;;;;;;4959264;28;19997;-76
2023/10/03 12:48:09;;;;;;;;;;;21.30;74.80;;;;;;4955282;28;20047;-76
2023/10/03 12:50:39;;;;;;;;;;;21.40;74.60;;;;;;4958652;28;20024;-78
2023/10/03 12:53:10;;;;;;;;;;;21.50;74.30;;;;;;4959790;28;20005;-76
2023/10/03 12:55:38;;;;;;;;;;;21.50;73.80;;;;;;4962791;28;20047;-77
2023/10/03 12:58:04;;;;;;;;;;;21.60;73.90;;;;;;4959351;28;19997;-77
2023/10/03 13:00:31;;;;;;;;;;;21.70;73.70;;;;;;4967615;28;20673;-78
2023/10/03 13:02:59;;;;;;;;;;;21.60;73.60;;;;;;4961401;28;19981;-77
2023/10/03 13:05:26;;;;;;;;;;;21.70;73.40;;;;;;4972479;28;19985;-76
2023/10/03 13:07:54;;;;;;;;;;;21.70;73.70;;;;;;4958165;28;20498;-78
2023/10/03 13:10:24;;;;;;;;;;;21.80;73.20;;;;;;4961467;28;19981;-76
2023/10/03 13:12:54;;;;;;;;;;;21.80;72.80;;;;;;4961688;28;20078;-77
2023/10/03 13:15:21;;;;;;;;;;;21.80;72.50;;;;;;4961322;28;19977;-76
2023/10/03 13:17:49;;;;;;;;;;;21.90;72.70;;;;;;4960800;28;19993;-76
2023/10/03 13:20:18;;;;;;;;;;;21.90;72.70;;;;;;4956716;28;19985;-76
2023/10/03 13:22:45;;;;;;;;;;;21.90;72.70;;;;;;4960318;28;19977;-76
2023/10/03 13:25:17;;;;;;;;;;;22.00;72.60;;;;;;4955168;28;19981;-77
2023/10/03 13:27:45;;;;;;;;;;;22.00;72.70;;;;;;4961057;28;20547;-78
2023/10/03 13:30:17;;;;;;;;;;;22.00;72.20;;;;;;4957328;28;20000;-78
2023/10/03 13:32:45;;;;;;;;;;;22.10;72.10;;;;;;4961761;28;20035;-77
2023/10/03 13:35:13;;;;;;;;;;;22.10;72.30;;;;;;4961253;28;19977;-78
2023/10/03 13:37:40;;;;;;;;;;;22.10;72.20;;;;;;4956680;28;19993;-78
2023/10/03 13:40:07;;;;;;;;;;;22.10;72.00;;;;;;4959941;28;20114;-78
2023/10/03 13:42:36;;;;;;;;;;;22.10;71.70;;;;;;4961303;28;19985;-79
2023/10/03 13:45:03;;;;;;;;;;;22.10;71.50;;;;;;4955767;28;19982;-78
2023/10/03 13:47:31;;;;;;;;;;;22.10;71.80;;;;;;4958457;28;20005;-79
2023/10/03 13:49:57;;;;;;;;;;;22.10;71.60;;;;;;4966274;28;19981;-78
2023/10/03 13:52:25;;;;;;;;;;;22.10;71.30;;;;;;4956050;28;19985;-80
2023/10/03 13:54:51;;;;;;;;;;;22.10;71.40;;;;;;4959593;28;20141;-78
2023/10/03 13:57:18;;;;;;;;;;;22.00;71.40;;;;;;4961292;28;20403;-79
2023/10/03 13:59:47;;;;;;;;;;;22.00;71.70;;;;;;4976021;28;20054;-78
2023/10/03 14:02:13;;;;;;;;;;;22.00;71.50;;;;;;4969262;28;20538;-79
2023/10/03 14:04:40;;;;;;;;;;;22.00;71.50;;;;;;4965679;28;19985;-78
2023/10/03 14:07:06;;;;;;;;;;;22.00;71.70;;;;;;4960205;28;20043;-77
2023/10/03 14:09:33;;;;;;;;;;;22.00;71.30;;;;;;4954864;28;19985;-79
2023/10/03 14:12:04;;;;;;;;;;;22.00;71.80;;;;;;4961306;28;19985;-79
2023/10/03 14:14:32;;;;;;;;;;;22.00;71.80;;;;;;4961368;28;20012;-78
2023/10/03 14:17:01;;;;;;;;;;;22.00;71.90;;;;;;4964345;28;20020;-78
2023/10/03 14:19:27;;;;;;;;;;;21.90;72.00;;;;;;4967064;28;20062;-78
2023/10/03 14:21:54;;;;;;;;;;;21.90;71.70;;;;;;4959368;28;20103;-78
2023/10/03 14:24:21;;;;;;;;;;;21.90;71.80;;;;;;4961549;28;19989;-78
2023/10/03 14:26:48;;;;;;;;;;;21.90;72.00;;;;;;4960152;28;20015;-79